sensor_id;sensor_type;location;lat;lon;timestamp;temperature;humidity
43651;DHT22;29247;50.944;5.382;2023-06-22T00:00:08;22.40;71.10
43651;DHT22;29247;50.944;5.382;2023-06-22T00:02:39;22.40;70.90
43651;DHT22;29247;50.944;5.382;2023-06-22T00:05:05;22.30;71.00
43651;DHT22;29247;50.944;5.382;2023-06-22T00:07:31;22.30;70.90
43651;DHT22;29247;50.944;5.382;2023-06-22T00:10:00;22.30;71.00
43651;DHT22;29247;50.944;5.382;2023-06-22T00:12:26;22.30;71.20
43651;DHT22;29247;50.944;5.382;2023-06-22T00:14:51;22.30;71.30
43651;DHT22;29247;50.944;5.382;2023-06-22T00:17:17;22.30;71.50
43651;DHT22;29247;50.944;5.382;2023-06-22T00:19:43;22.20;71.60
43651;DHT22;29247;50.944;5.382;2023-06-22T00:22:08;22.20;71.80
43651;DHT22;29247;50.944;5.382;2023-06-22T00:24:36;22.20;72.10
43651;DHT22;29247;50.944;5.382;2023-06-22T00:27:07;22.20;72.20
43651;DHT22;29247;50.944;5.382;2023-06-22T00:29:33;22.20;72.30
43651;DHT22;29247;50.944;5.382;2023-06-22T00:32:00;22.20;72.20
43651;DHT22;29247;50.944;5.382;2023-06-22T00:34:26;22.20;72.20
43651;DHT22;29247;50.944;5.382;2023-06-22T00:36:54;22.20;72.30
43651;DHT22;29247;50.944;5.382;2023-06-22T00:39:20;22.10;72.10
43651;DHT22;29247;50.944;5.382;2023-06-22T00:41:48;22.10;71.90
43651;DHT22;29247;50.944;5.382;2023-06-22T00:44:14;22.10;72.10
43651;DHT22;29247;50.944;5.382;2023-06-22T00:46:42;22.10;72.40
43651;DHT22;29247;50.944;5.382;2023-06-22T00:49:07;22.10;72.70
43651;DHT22;29247;50.944;5.382;2023-06-22T00:51:33;22.10;73.00
43651;DHT22;29247;50.944;5.382;2023-06-22T00:54:01;22.10;72.90
43651;DHT22;29247;50.944;5.382;2023-06-22T00:56:33;22.00;72.70
43651;DHT22;29247;50.944;5.382;2023-06-22T00:58:59;22.00;72.50
43651;DHT22;29247;50.944;5.382;2023-06-22T01:01:25;22.10;72.60
43651;DHT22;29247;50.944;5.382;2023-06-22T01:03:53;22.00;72.60
43651;DHT22;29247;50.944;5.382;2023-06-22T01:06:29;22.00;72.60
43651;DHT22;29247;50.944;5.382;2023-06-22T01:09:20;22.00;72.80
43651;DHT22;29247;50.944;5.382;2023-06-22T01:12:11;22.00;73.10
43651;DHT22;29247;50.944;5.382;2023-06-22T01:14:49;22.10;73.10
43651;DHT22;29247;50.944;5.382;2023-06-22T01:17:19;22.10;73.70
43651;DHT22;29247;50.944;5.382;2023-06-22T01:22:18;22.10;72.90
43651;DHT22;29247;50.944;5.382;2023-06-22T01:29:55;22.10;74.00
43651;DHT22;29247;50.944;5.382;2023-06-22T01:32:36;22.10;74.00
43651;DHT22;29247;50.944;5.382;2023-06-22T01:35:05;22.10;73.90
43651;DHT22;29247;50.944;5.382;2023-06-22T01:37:32;22.10;73.50
43651;DHT22;29247;50.944;5.382;2023-06-22T01:39:59;22.10;73.20
43651;DHT22;29247;50.944;5.382;2023-06-22T01:42:28;22.00;72.90
43651;DHT22;29247;50.944;5.382;2023-06-22T01:44:57;22.00;72.50
43651;DHT22;29247;50.944;5.382;2023-06-22T01:47:28;22.00;72.70
43651;DHT22;29247;50.944;5.382;2023-06-22T01:49:55;22.00;72.60
43651;DHT22;29247;50.944;5.382;2023-06-22T01:52:23;22.00;72.50
43651;DHT22;29247;50.944;5.382;2023-06-22T01:54:51;22.00;72.70
43651;DHT22;29247;50.944;5.382;2023-06-22T01:57:16;22.00;73.00
43651;DHT22;29247;50.944;5.382;2023-06-22T02:02:24;21.90;73.10
43651;DHT22;29247;50.944;5.382;2023-06-22T02:04:59;22.00;73.00
43651;DHT22;29247;50.944;5.382;2023-06-22T02:07:28;21.90;72.80
43651;DHT22;29247;50.944;5.382;2023-06-22T02:09:56;21.90;72.70
43651;DHT22;29247;50.944;5.382;2023-06-22T02:12:25;21.90;72.80
43651;DHT22;29247;50.944;5.382;2023-06-22T02:14:54;21.80;73.10
43651;DHT22;29247;50.944;5.382;2023-06-22T02:17:20;21.80;73.20
43651;DHT22;29247;50.944;5.382;2023-06-22T02:19:48;21.70;73.40
43651;DHT22;29247;50.944;5.382;2023-06-22T02:22:14;21.80;73.70
43651;DHT22;29247;50.944;5.382;2023-06-22T02:24:40;21.70;73.70
43651;DHT22;29247;50.944;5.382;2023-06-22T02:27:07;21.70;73.70
43651;DHT22;29247;50.944;5.382;2023-06-22T02:29:36;21.70;73.70
43651;DHT22;29247;50.944;5.382;2023-06-22T02:32:05;21.70;73.80
43651;DHT22;29247;50.944;5.382;2023-06-22T02:34:32;21.70;73.90
43651;DHT22;29247;50.944;5.382;2023-06-22T02:37:01;21.70;73.90
43651;DHT22;29247;50.944;5.382;2023-06-22T02:39:30;21.70;74.20
43651;DHT22;29247;50.944;5.382;2023-06-22T02:41:58;21.70;74.30
43651;DHT22;29247;50.944;5.382;2023-06-22T02:44:26;21.70;74.50
43651;DHT22;29247;50.944;5.382;2023-06-22T02:46:52;21.70;74.60
43651;DHT22;29247;50.944;5.382;2023-06-22T02:49:17;21.70;74.50
43651;DHT22;29247;50.944;5.382;2023-06-22T02:51:47;21.70;74.30
43651;DHT22;29247;50.944;5.382;2023-06-22T02:54:13;21.70;74.10
43651;DHT22;29247;50.944;5.382;2023-06-22T02:56:38;21.70;74.10
43651;DHT22;29247;50.944;5.382;2023-06-22T02:59:06;21.70;74.10
43651;DHT22;29247;50.944;5.382;2023-06-22T03:01:33;21.70;74.10
43651;DHT22;29247;50.944;5.382;2023-06-22T03:04:08;21.70;74.20
43651;DHT22;29247;50.944;5.382;2023-06-22T03:06:33;21.70;74.30
43651;DHT22;29247;50.944;5.382;2023-06-22T03:09:01;21.70;74.40
43651;DHT22;29247;50.944;5.382;2023-06-22T03:11:32;21.70;74.40
43651;DHT22;29247;50.944;5.382;2023-06-22T03:13:58;21.70;74.60
43651;DHT22;29247;50.944;5.382;2023-06-22T03:16:25;21.60;74.80
43651;DHT22;29247;50.944;5.382;2023-06-22T03:18:53;21.60;74.90
43651;DHT22;29247;50.944;5.382;2023-06-22T03:21:19;21.60;75.00
43651;DHT22;29247;50.944;5.382;2023-06-22T03:23:47;21.60;75.30
43651;DHT22;29247;50.944;5.382;2023-06-22T03:26:17;21.60;75.50
43651;DHT22;29247;50.944;5.382;2023-06-22T03:28:45;21.60;75.70
43651;DHT22;29247;50.944;5.382;2023-06-22T03:31:13;21.60;75.90
43651;DHT22;29247;50.944;5.382;2023-06-22T03:33:38;21.60;75.90
43651;DHT22;29247;50.944;5.382;2023-06-22T03:36:09;21.60;76.00
43651;DHT22;29247;50.944;5.382;2023-06-22T03:38:39;21.60;76.00
43651;DHT22;29247;50.944;5.382;2023-06-22T03:41:07;21.60;75.80
43651;DHT22;29247;50.944;5.382;2023-06-22T03:43:33;21.60;76.10
43651;DHT22;29247;50.944;5.382;2023-06-22T03:46:01;21.60;76.40
43651;DHT22;29247;50.944;5.382;2023-06-22T03:48:29;21.50;76.60
43651;DHT22;29247;50.944;5.382;2023-06-22T03:50:55;21.50;76.80
43651;DHT22;29247;50.944;5.382;2023-06-22T03:53:21;21.50;77.10
43651;DHT22;29247;50.944;5.382;2023-06-22T03:55:55;21.60;77.20
43651;DHT22;29247;50.944;5.382;2023-06-22T03:58:21;21.50;77.20
43651;DHT22;29247;50.944;5.382;2023-06-22T04:00:48;21.60;77.30
43651;DHT22;29247;50.944;5.382;2023-06-22T04:03:21;21.60;77.40
43651;DHT22;29247;50.944;5.382;2023-06-22T04:05:47;21.60;77.50
43651;DHT22;29247;50.944;5.382;2023-06-22T04:08:14;21.60;77.30
43651;DHT22;29247;50.944;5.382;2023-06-22T04:10:40;21.60;77.70
43651;DHT22;29247;50.944;5.382;2023-06-22T04:13:08;21.60;78.00
43651;DHT22;29247;50.944;5.382;2023-06-22T04:15:34;21.60;78.30
43651;DHT22;29247;50.944;5.382;2023-06-22T04:17:59;21.60;78.50
43651;DHT22;29247;50.944;5.382;2023-06-22T04:20:25;21.60;78.50
43651;DHT22;29247;50.944;5.382;2023-06-22T04:22:53;21.60;78.40
43651;DHT22;29247;50.944;5.382;2023-06-22T04:25:22;21.60;78.60
43651;DHT22;29247;50.944;5.382;2023-06-22T04:27:53;21.60;78.70
43651;DHT22;29247;50.944;5.382;2023-06-22T04:30:18;21.60;78.90
43651;DHT22;29247;50.944;5.382;2023-06-22T04:32:45;21.60;78.90
43651;DHT22;29247;50.944;5.382;2023-06-22T04:35:11;21.70;79.10
43651;DHT22;29247;50.944;5.382;2023-06-22T04:37:37;21.70;79.20
43651;DHT22;29247;50.944;5.382;2023-06-22T04:40:05;21.70;79.50
43651;DHT22;29247;50.944;5.382;2023-06-22T04:42:30;21.70;79.80
43651;DHT22;29247;50.944;5.382;2023-06-22T04:44:57;21.70;80.00
43651;DHT22;29247;50.944;5.382;2023-06-22T04:47:25;21.70;80.00
43651;DHT22;29247;50.944;5.382;2023-06-22T04:49:51;21.70;80.00
43651;DHT22;29247;50.944;5.382;2023-06-22T04:52:19;21.70;80.30
43651;DHT22;29247;50.944;5.382;2023-06-22T04:54:45;21.70;80.70
43651;DHT22;29247;50.944;5.382;2023-06-22T04:57:20;21.70;81.10
43651;DHT22;29247;50.944;5.382;2023-06-22T04:59:46;21.70;81.20
43651;DHT22;29247;50.944;5.382;2023-06-22T05:02:12;21.70;81.40
43651;DHT22;29247;50.944;5.382;2023-06-22T05:04:38;21.60;82.00
43651;DHT22;29247;50.944;5.382;2023-06-22T05:07:07;21.60;82.50
43651;DHT22;29247;50.944;5.382;2023-06-22T05:09:35;21.60;83.20
43651;DHT22;29247;50.944;5.382;2023-06-22T05:12:03;21.50;84.30
43651;DHT22;29247;50.944;5.382;2023-06-22T05:14:32;21.50;84.00
43651;DHT22;29247;50.944;5.382;2023-06-22T05:16:58;21.50;84.30
43651;DHT22;29247;50.944;5.382;2023-06-22T05:19:29;21.50;84.60
43651;DHT22;29247;50.944;5.382;2023-06-22T05:21:58;21.50;84.80
43651;DHT22;29247;50.944;5.382;2023-06-22T05:24:29;21.50;85.10
43651;DHT22;29247;50.944;5.382;2023-06-22T05:26:54;21.50;85.60
43651;DHT22;29247;50.944;5.382;2023-06-22T05:29:23;21.50;85.40
43651;DHT22;29247;50.944;5.382;2023-06-22T05:31:49;21.50;86.00
43651;DHT22;29247;50.944;5.382;2023-06-22T05:34:15;21.40;86.50
43651;DHT22;29247;50.944;5.382;2023-06-22T05:36:43;21.40;86.90
43651;DHT22;29247;50.944;5.382;2023-06-22T05:39:13;21.40;87.40
43651;DHT22;29247;50.944;5.382;2023-06-22T05:41:39;21.40;87.90
43651;DHT22;29247;50.944;5.382;2023-06-22T05:44:05;21.40;88.20
43651;DHT22;29247;50.944;5.382;2023-06-22T05:46:31;21.40;88.50
43651;DHT22;29247;50.944;5.382;2023-06-22T05:48:56;21.30;88.80
43651;DHT22;29247;50.944;5.382;2023-06-22T05:51:24;21.30;89.20
43651;DHT22;29247;50.944;5.382;2023-06-22T05:53:50;21.30;89.50
43651;DHT22;29247;50.944;5.382;2023-06-22T05:56:18;21.30;89.70
43651;DHT22;29247;50.944;5.382;2023-06-22T05:58:47;21.30;90.00
43651;DHT22;29247;50.944;5.382;2023-06-22T06:01:12;21.30;90.00
43651;DHT22;29247;50.944;5.382;2023-06-22T06:03:41;21.30;90.10
43651;DHT22;29247;50.944;5.382;2023-06-22T06:06:07;21.30;90.30
43651;DHT22;29247;50.944;5.382;2023-06-22T06:08:33;21.30;90.40
43651;DHT22;29247;50.944;5.382;2023-06-22T06:10:59;21.30;90.40
43651;DHT22;29247;50.944;5.382;2023-06-22T06:13:25;21.30;90.40
43651;DHT22;29247;50.944;5.382;2023-06-22T06:15:50;21.30;90.40
43651;DHT22;29247;50.944;5.382;2023-06-22T06:18:17;21.30;90.50
43651;DHT22;29247;50.944;5.382;2023-06-22T06:20:43;21.30;90.60
43651;DHT22;29247;50.944;5.382;2023-06-22T06:23:11;21.30;90.60
43651;DHT22;29247;50.944;5.382;2023-06-22T06:25:39;21.30;90.70
43651;DHT22;29247;50.944;5.382;2023-06-22T06:28:04;21.30;90.60
43651;DHT22;29247;50.944;5.382;2023-06-22T06:30:30;21.30;90.70
43651;DHT22;29247;50.944;5.382;2023-06-22T06:32:56;21.30;90.90
43651;DHT22;29247;50.944;5.382;2023-06-22T06:35:23;21.30;91.10
43651;DHT22;29247;50.944;5.382;2023-06-22T06:37:51;21.30;91.20
43651;DHT22;29247;50.944;5.382;2023-06-22T06:40:18;21.30;91.30
43651;DHT22;29247;50.944;5.382;2023-06-22T06:42:46;21.30;91.30
43651;DHT22;29247;50.944;5.382;2023-06-22T06:45:18;21.30;91.30
43651;DHT22;29247;50.944;5.382;2023-06-22T06:47:45;21.30;91.30
43651;DHT22;29247;50.944;5.382;2023-06-22T06:50:11;21.20;91.30
43651;DHT22;29247;50.944;5.382;2023-06-22T06:52:42;21.30;91.40
43651;DHT22;29247;50.944;5.382;2023-06-22T06:55:11;21.30;91.50
43651;DHT22;29247;50.944;5.382;2023-06-22T06:57:42;21.30;91.60
43651;DHT22;29247;50.944;5.382;2023-06-22T07:00:12;21.30;91.60
43651;DHT22;29247;50.944;5.382;2023-06-22T07:02:42;21.30;91.60
43651;DHT22;29247;50.944;5.382;2023-06-22T07:05:09;21.40;91.50
43651;DHT22;29247;50.944;5.382;2023-06-22T07:07:37;21.30;91.50
43651;DHT22;29247;50.944;5.382;2023-06-22T07:10:07;21.40;91.80
43651;DHT22;29247;50.944;5.382;2023-06-22T07:12:33;21.50;92.00
43651;DHT22;29247;50.944;5.382;2023-06-22T07:15:07;21.70;91.80
43651;DHT22;29247;50.944;5.382;2023-06-22T07:17:39;21.80;91.90
43651;DHT22;29247;50.944;5.382;2023-06-22T07:20:10;21.90;91.40
43651;DHT22;29247;50.944;5.382;2023-06-22T07:22:46;22.10;90.90
43651;DHT22;29247;50.944;5.382;2023-06-22T07:25:14;22.10;90.40
43651;DHT22;29247;50.944;5.382;2023-06-22T07:30:29;22.20;90.10
43651;DHT22;29247;50.944;5.382;2023-06-22T07:32:55;22.20;89.90
43651;DHT22;29247;50.944;5.382;2023-06-22T07:35:21;22.20;89.60
43651;DHT22;29247;50.944;5.382;2023-06-22T07:37:47;22.20;89.00
43651;DHT22;29247;50.944;5.382;2023-06-22T07:40:13;22.20;88.90
43651;DHT22;29247;50.944;5.382;2023-06-22T07:42:39;22.20;89.30
43651;DHT22;29247;50.944;5.382;2023-06-22T07:45:05;22.20;89.60
43651;DHT22;29247;50.944;5.382;2023-06-22T07:47:35;22.20;89.60
43651;DHT22;29247;50.944;5.382;2023-06-22T07:50:02;22.30;89.60
43651;DHT22;29247;50.944;5.382;2023-06-22T07:52:29;22.30;89.30
43651;DHT22;29247;50.944;5.382;2023-06-22T07:54:55;22.30;88.90
43651;DHT22;29247;50.944;5.382;2023-06-22T07:57:24;22.40;89.30
43651;DHT22;29247;50.944;5.382;2023-06-22T07:59:58;22.30;88.90
43651;DHT22;29247;50.944;5.382;2023-06-22T08:02:24;22.40;88.40
43651;DHT22;29247;50.944;5.382;2023-06-22T08:04:52;22.30;88.30
43651;DHT22;29247;50.944;5.382;2023-06-22T08:07:18;22.40;88.40
43651;DHT22;29247;50.944;5.382;2023-06-22T08:09:48;22.40;89.20
43651;DHT22;29247;50.944;5.382;2023-06-22T08:12:14;22.50;89.10
43651;DHT22;29247;50.944;5.382;2023-06-22T08:14:42;22.50;88.60
43651;DHT22;29247;50.944;5.382;2023-06-22T08:17:07;22.60;89.00
43651;DHT22;29247;50.944;5.382;2023-06-22T08:19:37;22.60;89.10
43651;DHT22;29247;50.944;5.382;2023-06-22T08:22:02;22.70;88.00
43651;DHT22;29247;50.944;5.382;2023-06-22T08:24:29;22.80;87.80
43651;DHT22;29247;50.944;5.382;2023-06-22T08:26:56;22.80;87.30
43651;DHT22;29247;50.944;5.382;2023-06-22T08:29:24;22.80;86.80
43651;DHT22;29247;50.944;5.382;2023-06-22T08:31:49;22.90;86.80
43651;DHT22;29247;50.944;5.382;2023-06-22T08:34:17;22.90;86.80
43651;DHT22;29247;50.944;5.382;2023-06-22T08:36:47;23.00;86.60
43651;DHT22;29247;50.944;5.382;2023-06-22T08:39:17;23.10;87.60
43651;DHT22;29247;50.944;5.382;2023-06-22T08:41:46;23.10;86.80
43651;DHT22;29247;50.944;5.382;2023-06-22T08:44:17;23.10;86.30
43651;DHT22;29247;50.944;5.382;2023-06-22T08:46:43;23.20;86.00
43651;DHT22;29247;50.944;5.382;2023-06-22T08:49:11;23.20;85.70
43651;DHT22;29247;50.944;5.382;2023-06-22T08:51:36;23.30;85.40
43651;DHT22;29247;50.944;5.382;2023-06-22T08:54:04;23.30;84.60
43651;DHT22;29247;50.944;5.382;2023-06-22T08:56:30;23.30;84.00
43651;DHT22;29247;50.944;5.382;2023-06-22T08:58:56;23.40;84.40
43651;DHT22;29247;50.944;5.382;2023-06-22T09:01:21;23.40;84.40
43651;DHT22;29247;50.944;5.382;2023-06-22T09:03:47;23.40;84.20
43651;DHT22;29247;50.944;5.382;2023-06-22T09:06:25;23.50;84.20
43651;DHT22;29247;50.944;5.382;2023-06-22T09:08:53;23.50;84.10
43651;DHT22;29247;50.944;5.382;2023-06-22T09:11:19;23.50;83.90
43651;DHT22;29247;50.944;5.382;2023-06-22T09:13:47;23.50;83.60
43651;DHT22;29247;50.944;5.382;2023-06-22T09:16:16;23.50;83.80
43651;DHT22;29247;50.944;5.382;2023-06-22T09:18:45;23.50;83.60
43651;DHT22;29247;50.944;5.382;2023-06-22T09:21:15;23.50;83.40
43651;DHT22;29247;50.944;5.382;2023-06-22T09:23:40;23.50;83.10
43651;DHT22;29247;50.944;5.382;2023-06-22T09:26:06;23.50;83.30
43651;DHT22;29247;50.944;5.382;2023-06-22T09:28:32;23.50;83.80
43651;DHT22;29247;50.944;5.382;2023-06-22T09:31:01;23.60;83.50
43651;DHT22;29247;50.944;5.382;2023-06-22T09:33:29;23.60;83.50
43651;DHT22;29247;50.944;5.382;2023-06-22T09:35:55;23.60;83.40
43651;DHT22;29247;50.944;5.382;2023-06-22T09:38:23;23.60;84.40
43651;DHT22;29247;50.944;5.382;2023-06-22T09:40:51;23.60;83.50
43651;DHT22;29247;50.944;5.382;2023-06-22T09:43:17;23.60;83.60
43651;DHT22;29247;50.944;5.382;2023-06-22T09:45:42;23.60;83.40
43651;DHT22;29247;50.944;5.382;2023-06-22T09:48:08;23.60;83.50
43651;DHT22;29247;50.944;5.382;2023-06-22T09:50:35;23.60;83.80
43651;DHT22;29247;50.944;5.382;2023-06-22T09:53:02;23.60;83.90
43651;DHT22;29247;50.944;5.382;2023-06-22T09:55:28;23.60;84.00
43651;DHT22;29247;50.944;5.382;2023-06-22T09:57:54;23.60;84.50
43651;DHT22;29247;50.944;5.382;2023-06-22T10:00:23;23.60;84.50
43651;DHT22;29247;50.944;5.382;2023-06-22T10:02:52;23.60;84.70
43651;DHT22;29247;50.944;5.382;2023-06-22T10:05:18;23.60;85.00
43651;DHT22;29247;50.944;5.382;2023-06-22T10:07:43;23.60;85.60
43651;DHT22;29247;50.944;5.382;2023-06-22T10:10:11;23.60;86.20
43651;DHT22;29247;50.944;5.382;2023-06-22T10:12:41;23.60;86.60
43651;DHT22;29247;50.944;5.382;2023-06-22T10:15:07;23.60;86.90
43651;DHT22;29247;50.944;5.382;2023-06-22T10:17:33;23.50;87.40
43651;DHT22;29247;50.944;5.382;2023-06-22T10:20:01;23.50;87.60
43651;DHT22;29247;50.944;5.382;2023-06-22T10:22:32;23.40;87.80
43651;DHT22;29247;50.944;5.382;2023-06-22T10:24:57;23.40;88.10
43651;DHT22;29247;50.944;5.382;2023-06-22T10:27:25;23.40;88.70
43651;DHT22;29247;50.944;5.382;2023-06-22T10:29:53;23.30;88.90
43651;DHT22;29247;50.944;5.382;2023-06-22T10:32:19;23.30;89.40
43651;DHT22;29247;50.944;5.382;2023-06-22T10:34:45;23.20;89.80
43651;DHT22;29247;50.944;5.382;2023-06-22T10:37:16;23.20;90.10
43651;DHT22;29247;50.944;5.382;2023-06-22T10:39:41;23.10;90.20
43651;DHT22;29247;50.944;5.382;2023-06-22T10:42:09;23.10;90.30
43651;DHT22;29247;50.944;5.382;2023-06-22T10:44:37;23.00;90.60
43651;DHT22;29247;50.944;5.382;2023-06-22T10:47:04;23.00;90.90
43651;DHT22;29247;50.944;5.382;2023-06-22T10:49:30;23.00;91.10
43651;DHT22;29247;50.944;5.382;2023-06-22T10:51:58;23.00;91.40
43651;DHT22;29247;50.944;5.382;2023-06-22T10:54:24;23.00;91.50
43651;DHT22;29247;50.944;5.382;2023-06-22T10:56:56;22.90;91.70
43651;DHT22;29247;50.944;5.382;2023-06-22T10:59:22;22.90;91.60
43651;DHT22;29247;50.944;5.382;2023-06-22T11:01:49;22.90;91.80
43651;DHT22;29247;50.944;5.382;2023-06-22T11:04:14;22.90;91.90
43651;DHT22;29247;50.944;5.382;2023-06-22T11:06:41;22.90;92.10
43651;DHT22;29247;50.944;5.382;2023-06-22T11:09:06;22.90;92.20
43651;DHT22;29247;50.944;5.382;2023-06-22T11:11:32;22.90;92.20
43651;DHT22;29247;50.944;5.382;2023-06-22T11:13:58;22.90;92.20
43651;DHT22;29247;50.944;5.382;2023-06-22T11:16:25;22.90;92.20
43651;DHT22;29247;50.944;5.382;2023-06-22T11:18:51;22.80;92.30
43651;DHT22;29247;50.944;5.382;2023-06-22T11:21:19;22.80;92.50
43651;DHT22;29247;50.944;5.382;2023-06-22T11:23:47;22.80;92.70
43651;DHT22;29247;50.944;5.382;2023-06-22T11:26:14;22.90;93.10
43651;DHT22;29247;50.944;5.382;2023-06-22T11:28:39;23.00;93.20
43651;DHT22;29247;50.944;5.382;2023-06-22T11:31:08;23.00;93.30
43651;DHT22;29247;50.944;5.382;2023-06-22T11:33:36;23.10;93.40
43651;DHT22;29247;50.944;5.382;2023-06-22T11:36:02;23.20;93.50
43651;DHT22;29247;50.944;5.382;2023-06-22T11:38:28;23.20;93.00
43651;DHT22;29247;50.944;5.382;2023-06-22T11:40:54;23.20;92.90
43651;DHT22;29247;50.944;5.382;2023-06-22T11:43:20;23.30;92.80
43651;DHT22;29247;50.944;5.382;2023-06-22T11:45:46;23.20;92.20
43651;DHT22;29247;50.944;5.382;2023-06-22T11:48:11;23.20;92.40
43651;DHT22;29247;50.944;5.382;2023-06-22T11:50:39;23.20;92.00
43651;DHT22;29247;50.944;5.382;2023-06-22T11:53:07;23.10;92.00
43651;DHT22;29247;50.944;5.382;2023-06-22T11:55:33;23.10;92.10
43651;DHT22;29247;50.944;5.382;2023-06-22T11:57:59;23.10;92.20
43651;DHT22;29247;50.944;5.382;2023-06-22T12:00:27;23.10;92.10
43651;DHT22;29247;50.944;5.382;2023-06-22T12:02:53;23.00;91.90
43651;DHT22;29247;50.944;5.382;2023-06-22T12:05:22;22.90;91.90
43651;DHT22;29247;50.944;5.382;2023-06-22T12:07:52;22.90;92.10
43651;DHT22;29247;50.944;5.382;2023-06-22T12:10:18;22.80;92.00
43651;DHT22;29247;50.944;5.382;2023-06-22T12:12:44;22.80;92.00
43651;DHT22;29247;50.944;5.382;2023-06-22T12:15:15;22.70;92.00
43651;DHT22;29247;50.944;5.382;2023-06-22T12:17:43;22.70;92.20
43651;DHT22;29247;50.944;5.382;2023-06-22T12:20:09;22.70;92.30
43651;DHT22;29247;50.944;5.382;2023-06-22T12:22:35;22.60;92.30
43651;DHT22;29247;50.944;5.382;2023-06-22T12:25:06;22.60;92.50
43651;DHT22;29247;50.944;5.382;2023-06-22T12:27:31;22.50;92.50
43651;DHT22;29247;50.944;5.382;2023-06-22T12:29:59;22.50;92.50
43651;DHT22;29247;50.944;5.382;2023-06-22T12:32:25;22.50;92.60
43651;DHT22;29247;50.944;5.382;2023-06-22T12:34:51;22.50;92.80
43651;DHT22;29247;50.944;5.382;2023-06-22T12:37:17;22.40;92.90
43651;DHT22;29247;50.944;5.382;2023-06-22T12:39:43;22.40;92.90
43651;DHT22;29247;50.944;5.382;2023-06-22T12:42:10;22.40;93.00
43651;DHT22;29247;50.944;5.382;2023-06-22T12:44:39;22.40;93.20
43651;DHT22;29247;50.944;5.382;2023-06-22T12:47:06;22.30;93.30
43651;DHT22;29247;50.944;5.382;2023-06-22T12:49:37;22.30;93.40
43651;DHT22;29247;50.944;5.382;2023-06-22T12:52:08;22.30;93.50
43651;DHT22;29247;50.944;5.382;2023-06-22T12:54:37;22.30;93.40
43651;DHT22;29247;50.944;5.382;2023-06-22T12:57:05;22.30;93.50
43651;DHT22;29247;50.944;5.382;2023-06-22T12:59:30;22.20;93.60
43651;DHT22;29247;50.944;5.382;2023-06-22T13:01:56;22.20;93.70
43651;DHT22;29247;50.944;5.382;2023-06-22T13:04:22;22.10;93.70
43651;DHT22;29247;50.944;5.382;2023-06-22T13:06:47;22.10;93.70
43651;DHT22;29247;50.944;5.382;2023-06-22T13:09:18;22.00;93.90
43651;DHT22;29247;50.944;5.382;2023-06-22T13:11:43;22.00;94.00
43651;DHT22;29247;50.944;5.382;2023-06-22T13:14:09;22.00;93.90
43651;DHT22;29247;50.944;5.382;2023-06-22T13:16:35;22.00;94.00
43651;DHT22;29247;50.944;5.382;2023-06-22T13:19:03;21.90;94.10
43651;DHT22;29247;50.944;5.382;2023-06-22T13:21:31;21.90;94.30
43651;DHT22;29247;50.944;5.382;2023-06-22T13:24:00;21.80;94.20
43651;DHT22;29247;50.944;5.382;2023-06-22T13:26:26;21.80;94.30
43651;DHT22;29247;50.944;5.382;2023-06-22T13:28:54;21.70;94.40
43651;DHT22;29247;50.944;5.382;2023-06-22T13:31:22;21.70;94.60
43651;DHT22;29247;50.944;5.382;2023-06-22T13:33:48;21.70;94.60
43651;DHT22;29247;50.944;5.382;2023-06-22T13:36:16;21.70;94.80
43651;DHT22;29247;50.944;5.382;2023-06-22T13:38:43;21.70;94.80
43651;DHT22;29247;50.944;5.382;2023-06-22T13:41:11;21.60;94.80
43651;DHT22;29247;50.944;5.382;2023-06-22T13:43:37;21.60;94.70
43651;DHT22;29247;50.944;5.382;2023-06-22T13:46:02;21.60;94.80
43651;DHT22;29247;50.944;5.382;2023-06-22T13:48:30;21.50;94.80
43651;DHT22;29247;50.944;5.382;2023-06-22T13:50:58;21.50;94.80
43651;DHT22;29247;50.944;5.382;2023-06-22T13:53:28;21.40;94.90
43651;DHT22;29247;50.944;5.382;2023-06-22T13:55:56;21.40;94.90
43651;DHT22;29247;50.944;5.382;2023-06-22T13:58:22;21.40;94.90
43651;DHT22;29247;50.944;5.382;2023-06-22T14:00:48;21.40;95.00
43651;DHT22;29247;50.944;5.382;2023-06-22T14:03:14;21.40;95.10
43651;DHT22;29247;50.944;5.382;2023-06-22T14:05:42;21.30;95.10
43651;DHT22;29247;50.944;5.382;2023-06-22T14:08:11;21.30;95.20
43651;DHT22;29247;50.944;5.382;2023-06-22T14:10:45;21.30;95.30
43651;DHT22;29247;50.944;5.382;2023-06-22T14:13:10;21.30;95.30
43651;DHT22;29247;50.944;5.382;2023-06-22T14:15:36;21.30;95.30
43651;DHT22;29247;50.944;5.382;2023-06-22T14:18:04;21.20;95.20
43651;DHT22;29247;50.944;5.382;2023-06-22T14:20:32;21.30;95.20
43651;DHT22;29247;50.944;5.382;2023-06-22T14:22:57;21.20;95.20
43651;DHT22;29247;50.944;5.382;2023-06-22T14:25:28;21.20;95.20
43651;DHT22;29247;50.944;5.382;2023-06-22T14:27:56;21.20;95.20
43651;DHT22;29247;50.944;5.382;2023-06-22T14:30:21;21.10;95.10
43651;DHT22;29247;50.944;5.382;2023-06-22T14:32:47;21.10;95.10
43651;DHT22;29247;50.944;5.382;2023-06-22T14:35:13;21.10;95.20
43651;DHT22;29247;50.944;5.382;2023-06-22T14:37:43;21.00;95.20
43651;DHT22;29247;50.944;5.382;2023-06-22T14:40:10;21.00;95.30
43651;DHT22;29247;50.944;5.382;2023-06-22T14:42:36;21.00;95.30
43651;DHT22;29247;50.944;5.382;2023-06-22T14:45:02;21.00;95.40
43651;DHT22;29247;50.944;5.382;2023-06-22T14:47:30;20.90;95.50
43651;DHT22;29247;50.944;5.382;2023-06-22T14:49:56;20.90;95.40
43651;DHT22;29247;50.944;5.382;2023-06-22T14:52:24;20.90;95.40
43651;DHT22;29247;50.944;5.382;2023-06-22T14:54:50;20.90;95.60
43651;DHT22;29247;50.944;5.382;2023-06-22T14:57:18;20.80;95.60
43651;DHT22;29247;50.944;5.382;2023-06-22T14:59:48;20.80;95.60
43651;DHT22;29247;50.944;5.382;2023-06-22T15:02:14;20.80;95.60
43651;DHT22;29247;50.944;5.382;2023-06-22T15:04:40;20.80;95.60
43651;DHT22;29247;50.944;5.382;2023-06-22T15:07:08;20.80;95.70
43651;DHT22;29247;50.944;5.382;2023-06-22T15:09:35;20.80;95.60
43651;DHT22;29247;50.944;5.382;2023-06-22T15:12:01;20.70;95.70
43651;DHT22;29247;50.944;5.382;2023-06-22T15:14:28;20.70;95.70
43651;DHT22;29247;50.944;5.382;2023-06-22T15:16:57;20.70;95.70
43651;DHT22;29247;50.944;5.382;2023-06-22T15:19:23;20.70;95.80
43651;DHT22;29247;50.944;5.382;2023-06-22T15:21:48;20.60;95.70
43651;DHT22;29247;50.944;5.382;2023-06-22T15:24:14;20.70;95.80
43651;DHT22;29247;50.944;5.382;2023-06-22T15:26:40;20.60;95.90
43651;DHT22;29247;50.944;5.382;2023-06-22T15:29:07;20.60;95.90
43651;DHT22;29247;50.944;5.382;2023-06-22T15:31:37;20.60;96.00
43651;DHT22;29247;50.944;5.382;2023-06-22T15:34:06;20.60;96.00
43651;DHT22;29247;50.944;5.382;2023-06-22T15:36:31;20.60;96.00
43651;DHT22;29247;50.944;5.382;2023-06-22T15:38:59;20.60;95.90
43651;DHT22;29247;50.944;5.382;2023-06-22T15:41:29;20.60;95.90
43651;DHT22;29247;50.944;5.382;2023-06-22T15:43:57;20.60;95.80